Time;durP1;ratioP1;P1;durP2;ratioP2;P2;SDS_P1;SDS_P2;PMS_P1;PMS_P2;Temp;Humidity;BMP_temperature;BMP_pressure;BME280_temperature;BME280_humidity;BME280_pressure;Samples;Min_cycle;Max_cycle;Signal;HPM_P1;HPM_P2
2022/08/17 00:02:20;;;;;;;7.45;6.75;;;;;;;;;;5064366;28;20201;-66
2022/08/17 00:04:53;;;;;;;7.18;6.57;;;;;;;;;;5063263;28;20201;-67
2022/08/17 00:07:21;;;;;;;7.03;6.43;;;;;;;;;;5056516;28;20320;-67
2022/08/17 00:09:48;;;;;;;6.72;6.07;;;;;;;;;;5040711;28;20222;-66
2022/08/17 00:12:16;;;;;;;6.78;6.18;;;;;;;;;;5070150;28;20194;-66
2022/08/17 00:15:04;;;;;;;6.40;5.90;;;;;;;;;;5055072;28;20239;-65
2022/08/17 00:17:36;;;;;;;6.57;6.07;;;;;;;;;;5059450;28;20224;-66
2022/08/17 00:20:04;;;;;;;6.43;5.93;;;;;;;;;;5057675;28;20298;-66
2022/08/17 00:22:31;;;;;;;8.13;5.90;;;;;;;;;;5058559;28;20224;-66
2022/08/17 00:25:08;;;;;;;6.50;5.90;;;;;;;;;;5050581;28;20216;-66
2022/08/17 00:27:35;;;;;;;7.10;6.40;;;;;;;;;;5042605;28;20267;-66
2022/08/17 00:30:05;;;;;;;6.53;6.03;;;;;;;;;;5059859;28;20330;-66
2022/08/17 00:32:50;;;;;;;6.97;6.15;;;;;;;;;;5060839;28;20244;-66
2022/08/17 00:35:38;;;;;;;6.88;5.90;;;;;;;;;;5077282;28;20322;-66
2022/08/17 00:38:08;;;;;;;7.10;6.40;;;;;;;;;;5043623;28;20205;-66
2022/08/17 00:40:37;;;;;;;6.55;5.95;;;;;;;;;;5061142;28;20630;-66
2022/08/17 00:43:34;;;;;;;7.72;6.00;;;;;;;;;;5061136;28;20220;-66
2022/08/17 00:46:03;;;;;;;6.82;6.22;;;;;;;;;;5056343;28;20225;-68
2022/08/17 00:48:30;;;;;;;7.35;6.50;;;;;;;;;;5055561;28;20209;-67
2022/08/17 00:51:05;;;;;;;7.47;6.85;;;;;;;;;;5054681;28;20236;-67
2022/08/17 00:53:33;;;;;;;7.43;6.28;;;;;;;;;;5054805;28;20200;-67
2022/08/17 00:56:01;;;;;;;7.78;6.97;;;;;;;;;;5048526;28;20223;-67
2022/08/17 00:58:30;;;;;;;8.43;6.50;;;;;;;;;;5052337;28;20636;-66
2022/08/17 01:01:04;;;;;;;6.82;6.22;;;;;;;;;;5059764;28;20312;-67
2022/08/17 01:03:31;;;;;;;7.38;6.60;;;;;;;;;;5065643;28;20214;-67
2022/08/17 01:06:01;;;;;;;7.40;6.10;;;;;;;;;;5041464;28;20228;-67
2022/08/17 01:08:30;;;;;;;6.50;6.00;;;;;;;;;;5060508;28;20217;-67
2022/08/17 01:11:00;;;;;;;6.57;5.93;;;;;;;;;;5058810;28;20225;-66
2022/08/17 01:13:31;;;;;;;6.75;6.07;;;;;;;;;;5061875;28;20807;-67
2022/08/17 01:16:09;;;;;;;6.95;5.97;;;;;;;;;;5046482;28;20229;-66
2022/08/17 01:18:37;;;;;;;6.60;6.10;;;;;;;;;;5058921;28;20245;-67
2022/08/17 01:21:19;;;;;;;6.77;6.10;;;;;;;;;;5041603;28;20236;-67
2022/08/17 01:23:47;;;;;;;6.77;6.27;;;;;;;;;;5046658;28;20213;-67
2022/08/17 01:26:15;;;;;;;6.80;6.28;;;;;;;;;;5045940;28;20232;-67
2022/08/17 01:28:44;;;;;;;6.80;6.13;;;;;;;;;;5061420;28;20206;-66
2022/08/17 01:31:22;;;;;;;7.13;6.28;;;;;;;;;;5061263;28;20226;-67
2022/08/17 01:33:50;;;;;;;6.70;6.13;;;;;;;;;;5063297;28;20841;-66
2022/08/17 01:36:17;;;;;;;8.32;7.63;;;;;;;;;;5055196;28;20206;-67
2022/08/17 01:38:45;;;;;;;7.60;6.90;;;;;;;;;;5043748;28;20229;-66
2022/08/17 01:41:15;;;;;;;7.77;6.97;;;;;;;;;;5058001;28;20226;-67
2022/08/17 01:44:02;;;;;;;8.45;6.38;;;;;;;;;;5056003;28;20248;-66
2022/08/17 01:46:31;;;;;;;6.85;6.25;;;;;;;;;;5057395;28;20217;-66
2022/08/17 01:49:00;;;;;;;7.53;6.93;;;;;;;;;;5061237;28;20208;-67
2022/08/17 01:51:31;;;;;;;6.60;5.90;;;;;;;;;;5059073;28;20236;-67
2022/08/17 01:54:01;;;;;;;7.03;6.03;;;;;;;;;;5039315;28;20205;-66
2022/08/17 01:56:29;;;;;;;7.23;6.53;;;;;;;;;;5073237;28;20206;-66
2022/08/17 01:58:57;;;;;;;6.97;6.33;;;;;;;;;;5040800;28;20205;-66
2022/08/17 02:01:27;;;;;;;7.22;6.55;;;;;;;;;;5037199;28;20725;-67
2022/08/17 02:03:54;;;;;;;8.27;7.47;;;;;;;;;;5055083;28;20259;-66
2022/08/17 02:06:28;;;;;;;6.70;6.10;;;;;;;;;;5053416;28;20225;-66
2022/08/17 02:08:56;;;;;;;6.67;6.13;;;;;;;;;;5055910;28;20205;-67
2022/08/17 02:11:30;;;;;;;6.35;5.85;;;;;;;;;;5072050;28;21554;-67
2022/08/17 02:13:58;;;;;;;6.60;6.00;;;;;;;;;;5053160;28;20221;-65
2022/08/17 02:16:33;;;;;;;7.27;6.67;;;;;;;;;;5047851;28;20241;-67
2022/08/17 02:19:07;;;;;;;7.77;6.30;;;;;;;;;;5056893;28;20234;-67
2022/08/17 02:21:35;;;;;;;6.95;6.25;;;;;;;;;;5048309;28;20206;-67
2022/08/17 02:24:02;;;;;;;6.38;5.85;;;;;;;;;;5069456;28;20202;-67
2022/08/17 02:26:30;;;;;;;7.05;6.45;;;;;;;;;;5045514;28;20218;-66
2022/08/17 02:28:57;;;;;;;7.10;6.40;;;;;;;;;;5061428;28;20602;-66
2022/08/17 02:31:24;;;;;;;6.15;5.65;;;;;;;;;;5063916;28;20263;-67
2022/08/17 02:33:52;;;;;;;5.47;5.00;;;;;;;;;;5064159;28;20197;-67
2022/08/17 02:36:30;;;;;;;6.00;5.50;;;;;;;;;;5050167;28;20210;-67
2022/08/17 02:38:59;;;;;;;6.90;6.30;;;;;;;;;;5055631;28;20267;-67
2022/08/17 02:41:27;;;;;;;6.97;6.00;;;;;;;;;;5061800;28;20659;-65
2022/08/17 02:43:54;;;;;;;6.18;5.68;;;;;;;;;;5044528;28;20209;-66
2022/08/17 02:46:21;;;;;;;5.93;5.43;;;;;;;;;;5065528;28;20666;-67
2022/08/17 02:48:49;;;;;;;5.88;5.30;;;;;;;;;;5050584;28;20205;-67
2022/08/17 02:51:16;;;;;;;6.10;5.38;;;;;;;;;;5056802;28;20205;-67
2022/08/17 02:53:44;;;;;;;5.57;4.93;;;;;;;;;;5056063;28;20206;-67
2022/08/17 02:56:12;;;;;;;5.28;4.88;;;;;;;;;;5062580;28;20206;-67
2022/08/17 02:58:40;;;;;;;6.65;5.15;;;;;;;;;;5056868;28;20636;-67
2022/08/17 03:01:08;;;;;;;6.60;5.82;;;;;;;;;;5052171;28;20246;-66
2022/08/17 03:03:36;;;;;;;5.38;4.88;;;;;;;;;;5057039;28;20242;-67
2022/08/17 03:06:04;;;;;;;6.30;5.72;;;;;;;;;;5040384;28;20205;-67
2022/08/17 03:08:32;;;;;;;6.68;5.68;;;;;;;;;;5055854;28;20236;-67
2022/08/17 03:10:59;;;;;;;5.88;5.38;;;;;;;;;;5047913;28;20248;-66
2022/08/17 03:13:27;;;;;;;6.15;5.53;;;;;;;;;;5056268;28;21574;-66
2022/08/17 03:15:55;;;;;;;5.38;4.88;;;;;;;;;;5050465;28;20258;-66
2022/08/17 03:18:24;;;;;;;6.28;5.60;;;;;;;;;;5059679;28;20269;-66
2022/08/17 03:20:57;;;;;;;5.80;5.20;;;;;;;;;;5047487;28;20235;-66
2022/08/17 03:23:24;;;;;;;5.72;5.30;;;;;;;;;;5053762;28;20214;-66
2022/08/17 03:25:53;;;;;;;6.47;5.28;;;;;;;;;;5031396;28;20224;-68
2022/08/17 03:28:22;;;;;;;6.57;4.75;;;;;;;;;;5058701;28;20691;-66
2022/08/17 03:30:50;;;;;;;5.45;4.95;;;;;;;;;;5058451;28;20586;-67
2022/08/17 03:33:18;;;;;;;7.68;5.18;;;;;;;;;;5058659;28;20205;-66
2022/08/17 03:35:45;;;;;;;5.15;4.72;;;;;;;;;;5058271;28;20205;-67
2022/08/17 03:38:15;;;;;;;5.65;5.15;;;;;;;;;;5037886;28;21104;-65
2022/08/17 03:40:45;;;;;;;6.95;5.97;;;;;;;;;;5059843;28;20714;-67
2022/08/17 03:43:26;;;;;;;6.00;5.50;;;;;;;;;;5060150;28;20651;-67
2022/08/17 03:57:18;;;;;;;6.85;6.32;;;;;;;;;;5067639;28;20268;-66
2022/08/17 03:59:45;;;;;;;6.82;6.13;;;;;;;;;;5053347;28;20730;-66
2022/08/17 04:02:17;;;;;;;6.90;5.88;;;;;;;;;;5051875;28;20258;-66
2022/08/17 04:04:44;;;;;;;7.53;5.80;;;;;;;;;;5067129;28;20229;-66
2022/08/17 04:07:11;;;;;;;6.10;5.57;;;;;;;;;;5044490;28;20232;-66
2022/08/17 04:09:39;;;;;;;5.88;5.32;;;;;;;;;;5045013;28;20608;-65
2022/08/17 04:12:06;;;;;;;6.30;5.35;;;;;;;;;;5064453;28;20213;-66
2022/08/17 04:14:37;;;;;;;5.55;5.13;;;;;;;;;;5049674;28;20206;-66
2022/08/17 04:17:24;;;;;;;6.43;5.35;;;;;;;;;;5045742;28;20216;-66
2022/08/17 04:19:52;;;;;;;5.85;5.25;;;;;;;;;;5055516;28;20237;-66
2022/08/17 04:22:19;;;;;;;5.47;4.88;;;;;;;;;;5046209;28;20286;-66
2022/08/17 04:25:00;;;;;;;6.25;5.75;;;;;;;;;;5053588;28;20212;-66
2022/08/17 04:27:27;;;;;;;5.80;5.30;;;;;;;;;;5058082;28;20325;-67
2022/08/17 04:29:54;;;;;;;5.97;5.38;;;;;;;;;;5060581;28;20229;-67
2022/08/17 04:32:22;;;;;;;7.38;4.53;;;;;;;;;;5046235;28;20229;-67
2022/08/17 04:35:10;;;;;;;4.80;4.30;;;;;;;;;;5060087;28;20579;-67
2022/08/17 04:37:37;;;;;;;5.65;4.30;;;;;;;;;;5053824;28;20201;-67
2022/08/17 04:43:00;;;;;;;7.60;4.60;;;;;;;;;;5070037;28;20213;-66
2022/08/17 04:45:28;;;;;;;5.30;4.80;;;;;;;;;;5072657;28;20298;-67
2022/08/17 04:47:58;;;;;;;6.50;4.72;;;;;;;;;;5070448;28;20247;-66
2022/08/17 04:50:26;;;;;;;5.30;4.80;;;;;;;;;;5046390;28;20241;-67
2022/08/17 04:52:53;;;;;;;5.15;4.35;;;;;;;;;;5066899;28;20216;-66
2022/08/17 04:55:21;;;;;;;7.38;4.85;;;;;;;;;;5046468;28;20792;-66
2022/08/17 04:57:49;;;;;;;5.07;4.63;;;;;;;;;;5067021;28;20198;-66
2022/08/17 05:00:16;;;;;;;6.90;5.88;;;;;;;;;;5047576;28;20237;-67
2022/08/17 05:02:47;;;;;;;4.72;4.32;;;;;;;;;;5044058;28;20201;-66
2022/08/17 05:05:20;;;;;;;4.68;4.25;;;;;;;;;;5065503;28;20270;-67
2022/08/17 05:07:50;;;;;;;6.38;4.80;;;;;;;;;;5049543;28;20233;-67
2022/08/17 05:10:18;;;;;;;7.13;6.00;;;;;;;;;;5072320;28;20226;-67
2022/08/17 05:12:46;;;;;;;4.70;4.30;;;;;;;;;;5052476;28;20217;-66
2022/08/17 05:15:15;;;;;;;5.50;4.95;;;;;;;;;;5060393;28;20206;-66
2022/08/17 05:17:43;;;;;;;4.70;4.30;;;;;;;;;;5063606;28;20197;-67
2022/08/17 05:20:10;;;;;;;4.45;4.05;;;;;;;;;;5049223;28;20232;-67
2022/08/17 05:22:46;;;;;;;4.90;4.40;;;;;;;;;;5051899;28;20211;-66
2022/08/17 05:25:13;;;;;;;5.40;4.20;;;;;;;;;;5075676;28;20205;-66
2022/08/17 05:27:41;;;;;;;6.05;4.25;;;;;;;;;;5049831;28;20228;-66
2022/08/17 05:30:10;;;;;;;5.85;4.80;;;;;;;;;;5065313;28;20625;-67
2022/08/17 05:32:37;;;;;;;5.35;4.15;;;;;;;;;;5044752;28;20202;-66
2022/08/17 05:35:06;;;;;;;4.45;4.05;;;;;;;;;;5047700;28;20217;-65
2022/08/17 05:37:34;;;;;;;5.05;4.40;;;;;;;;;;5063603;28;20205;-66
2022/08/17 05:40:01;;;;;;;4.97;4.47;;;;;;;;;;5059657;28;20232;-65
2022/08/17 05:42:29;;;;;;;5.03;4.03;;;;;;;;;;5065115;28;20232;-66
2022/08/17 05:44:57;;;;;;;4.53;4.05;;;;;;;;;;5047046;28;20210;-66
2022/08/17 05:47:25;;;;;;;5.47;4.10;;;;;;;;;;5042876;28;20232;-66
2022/08/17 05:49:53;;;;;;;7.07;3.92;;;;;;;;;;5046993;28;20561;-67
2022/08/17 05:52:40;;;;;;;4.68;3.92;;;;;;;;;;5039362;28;20263;-67
2022/08/17 05:55:10;;;;;;;4.63;3.40;;;;;;;;;;5055144;28;20194;-66
2022/08/17 05:57:58;;;;;;;4.88;3.63;;;;;;;;;;5062816;28;20764;-67
2022/08/17 06:00:27;;;;;;;5.28;3.80;;;;;;;;;;5065045;28;20224;-65
2022/08/17 06:03:09;;;;;;;5.60;4.38;;;;;;;;;;5061966;28;20746;-66
2022/08/17 06:05:55;;;;;;;4.40;3.90;;;;;;;;;;5048409;28;20267;-66
2022/08/17 06:08:46;;;;;;;5.22;4.18;;;;;;;;;;5075721;28;20806;-66
2022/08/17 06:11:36;;;;;;;5.20;3.72;;;;;;;;;;5083843;28;20210;-66
2022/08/17 06:14:03;;;;;;;4.40;4.00;;;;;;;;;;5068651;28;20209;-65
2022/08/17 06:16:35;;;;;;;4.15;3.75;;;;;;;;;;5067842;28;20440;-65
2022/08/17 06:19:09;;;;;;;4.30;3.88;;;;;;;;;;5067085;28;20201;-66
2022/08/17 06:21:38;;;;;;;4.13;3.53;;;;;;;;;;5067302;28;20198;-67
2022/08/17 06:24:15;;;;;;;4.35;3.85;;;;;;;;;;5075608;28;20204;-66
2022/08/17 06:26:44;;;;;;;4.22;3.83;;;;;;;;;;5060647;28;20442;-66
2022/08/17 06:29:11;;;;;;;4.80;3.83;;;;;;;;;;5063958;28;20236;-66
2022/08/17 06:31:45;;;;;;;4.28;3.42;;;;;;;;;;5074435;28;20208;-66
2022/08/17 06:34:13;;;;;;;3.90;3.60;;;;;;;;;;5067758;28;20208;-66
2022/08/17 06:36:41;;;;;;;3.92;3.63;;;;;;;;;;5061257;28;20197;-66
2022/08/17 06:39:15;;;;;;;4.75;3.10;;;;;;;;;;5067650;28;20205;-66
2022/08/17 06:41:52;;;;;;;5.13;3.67;;;;;;;;;;5056352;28;20289;-67
2022/08/17 06:44:23;;;;;;;4.45;3.58;;;;;;;;;;5060896;28;20201;-67
2022/08/17 06:47:14;;;;;;;3.45;3.15;;;;;;;;;;5057616;28;20221;-66
2022/08/17 06:50:04;;;;;;;3.88;3.55;;;;;;;;;;5059158;28;20288;-66
2022/08/17 06:52:34;;;;;;;5.13;3.33;;;;;;;;;;5060955;28;20220;-67
2022/08/17 06:55:43;;;;;;;3.67;3.00;;;;;;;;;;5062821;28;20833;-66
2022/08/17 06:58:12;;;;;;;4.05;3.60;;;;;;;;;;5033075;28;20262;-65
2022/08/17 07:00:44;;;;;;;3.50;3.10;;;;;;;;;;5050281;28;20229;-66
2022/08/17 07:03:24;;;;;;;3.33;3.03;;;;;;;;;;5060636;28;20205;-67
2022/08/17 07:05:54;;;;;;;4.47;3.60;;;;;;;;;;5052058;28;20204;-66
2022/08/17 07:08:32;;;;;;;4.00;3.28;;;;;;;;;;5069658;28;20233;-66
2022/08/17 07:11:03;;;;;;;4.13;3.10;;;;;;;;;;5048013;28;20280;-66
2022/08/17 07:13:33;;;;;;;3.70;3.40;;;;;;;;;;5066752;28;20202;-66
2022/08/17 07:16:21;;;;;;;4.38;3.13;;;;;;;;;;5073452;28;20282;-66
2022/08/17 07:18:50;;;;;;;3.45;3.15;;;;;;;;;;5064120;28;20202;-65
2022/08/17 07:21:37;;;;;;;3.80;3.50;;;;;;;;;;5067422;28;20294;-66
2022/08/17 07:24:25;;;;;;;3.58;3.28;;;;;;;;;;5063012;28;20729;-66
2022/08/17 07:27:20;;;;;;;3.08;2.88;;;;;;;;;;5061241;28;20210;-66
2022/08/17 07:29:49;;;;;;;3.60;3.30;;;;;;;;;;5059479;28;20232;-66
2022/08/17 07:32:18;;;;;;;3.05;2.80;;;;;;;;;;5067112;28;20205;-65
2022/08/17 07:35:00;;;;;;;3.53;2.95;;;;;;;;;;5047566;28;20206;-67
2022/08/17 07:37:27;;;;;;;3.83;3.47;;;;;;;;;;5052714;28;20198;-66
2022/08/17 07:39:55;;;;;;;3.78;3.15;;;;;;;;;;5061551;28;22243;-66
2022/08/17 07:42:43;;;;;;;3.35;3.08;;;;;;;;;;5048265;28;20209;-67
2022/08/17 07:48:18;;;;;;;3.10;2.90;;;;;;;;;;5056546;28;20566;-65
2022/08/17 07:50:46;;;;;;;3.58;3.28;;;;;;;;;;5050673;28;20220;-66
2022/08/17 07:53:22;;;;;;;3.22;3.00;;;;;;;;;;5063652;28;20228;-65
2022/08/17 07:55:49;;;;;;;3.70;3.40;;;;;;;;;;5058596;28;20205;-66
2022/08/17 07:58:18;;;;;;;4.25;3.17;;;;;;;;;;5047472;28;21286;-65
2022/08/17 08:01:03;;;;;;;4.47;3.40;;;;;;;;;;5051308;28;20225;-65
2022/08/17 08:03:32;;;;;;;3.28;2.97;;;;;;;;;;5054951;28;20220;-66
2022/08/17 08:06:01;;;;;;;4.75;3.35;;;;;;;;;;5061090;28;20206;-67
2022/08/17 08:08:42;;;;;;;3.92;3.53;;;;;;;;;;5045738;28;20685;-67
2022/08/17 08:11:14;;;;;;;3.85;3.53;;;;;;;;;;5062064;28;20246;-66
2022/08/17 08:13:44;;;;;;;3.70;3.40;;;;;;;;;;5076495;28;20430;-67
2022/08/17 08:16:30;;;;;;;3.60;3.30;;;;;;;;;;5042078;28;20220;-67
2022/08/17 08:18:59;;;;;;;4.10;3.33;;;;;;;;;;5064617;28;20210;-67
2022/08/17 08:21:31;;;;;;;3.47;2.83;;;;;;;;;;5066930;28;20206;-67
2022/08/17 08:24:08;;;;;;;4.63;3.63;;;;;;;;;;5048817;28;20200;-67
2022/08/17 08:26:54;;;;;;;3.97;3.58;;;;;;;;;;5043610;28;20217;-66
2022/08/17 08:29:34;;;;;;;3.88;3.50;;;;;;;;;;5065182;28;20687;-67
2022/08/17 08:32:07;;;;;;;4.18;3.78;;;;;;;;;;5071489;28;20212;-66
2022/08/17 08:34:44;;;;;;;3.50;3.20;;;;;;;;;;5059959;28;20251;-67
2022/08/17 08:37:54;;;;;;;3.90;3.33;;;;;;;;;;5051554;28;20210;-67
2022/08/17 08:40:28;;;;;;;3.90;3.53;;;;;;;;;;5047490;28;20228;-67
2022/08/17 08:42:56;;;;;;;4.07;3.38;;;;;;;;;;5059086;28;20198;-67
2022/08/17 08:45:27;;;;;;;3.92;3.53;;;;;;;;;;5054985;28;20272;-67
2022/08/17 08:48:04;;;;;;;3.30;3.10;;;;;;;;;;5043446;28;20593;-66
2022/08/17 08:50:41;;;;;;;3.50;3.20;;;;;;;;;;5046628;28;20624;-67
2022/08/17 08:53:09;;;;;;;3.70;3.25;;;;;;;;;;5064271;28;20251;-66
2022/08/17 08:56:02;;;;;;;3.97;3.40;;;;;;;;;;5045053;28;20225;-67
2022/08/17 08:58:49;;;;;;;3.38;3.05;;;;;;;;;;5069036;28;20228;-67
2022/08/17 09:01:20;;;;;;;3.60;3.25;;;;;;;;;;5060830;28;20214;-67
2022/08/17 09:03:55;;;;;;;3.63;3.33;;;;;;;;;;5051806;28;20205;-67
2022/08/17 09:06:46;;;;;;;3.25;2.95;;;;;;;;;;5048945;28;20210;-67
2022/08/17 09:09:29;;;;;;;5.50;3.22;;;;;;;;;;5048097;28;20248;-67
2022/08/17 09:12:00;;;;;;;4.32;3.35;;;;;;;;;;5062272;28;20208;-66
2022/08/17 09:14:53;;;;;;;3.15;2.90;;;;;;;;;;5045815;28;20213;-67
2022/08/17 09:17:35;;;;;;;4.75;3.53;;;;;;;;;;5045116;28;20202;-67
2022/08/17 09:20:12;;;;;;;3.78;3.47;;;;;;;;;;5038122;28;20813;-64
2022/08/17 09:23:10;;;;;;;6.55;3.33;;;;;;;;;;5062550;28;20201;-66
2022/08/17 09:25:50;;;;;;;3.50;3.20;;;;;;;;;;5073551;28;20260;-67
2022/08/17 09:28:27;;;;;;;3.80;3.50;;;;;;;;;;5055696;28;20741;-67
2022/08/17 09:31:01;;;;;;;3.50;2.97;;;;;;;;;;5055682;28;20679;-66
2022/08/17 09:33:31;;;;;;;3.50;3.20;;;;;;;;;;5065276;28;20661;-67
2022/08/17 09:36:25;;;;;;;3.60;3.30;;;;;;;;;;5063247;28;20733;-66
2022/08/17 09:39:01;;;;;;;5.25;3.35;;;;;;;;;;5044792;28;20205;-66
2022/08/17 09:41:42;;;;;;;3.42;3.22;;;;;;;;;;5065463;28;20205;-67
2022/08/17 09:44:37;;;;;;;4.80;3.65;;;;;;;;;;5056053;28;20836;-67
2022/08/17 09:47:08;;;;;;;3.70;3.40;;;;;;;;;;5048661;28;20734;-66
2022/08/17 09:49:49;;;;;;;4.13;3.78;;;;;;;;;;5046934;28;20229;-67
2022/08/17 09:52:21;;;;;;;3.25;3.05;;;;;;;;;;5057582;28;20212;-67
2022/08/17 09:54:50;;;;;;;4.10;3.53;;;;;;;;;;5048223;28;20213;-66
2022/08/17 09:57:21;;;;;;;3.70;3.25;;;;;;;;;;5045279;28;20208;-66
2022/08/17 10:00:12;;;;;;;3.80;3.50;;;;;;;;;;5048001;28;20228;-67
2022/08/17 10:02:58;;;;;;;4.03;3.72;;;;;;;;;;5037659;28;20196;-67
2022/08/17 10:05:31;;;;;;;3.08;2.88;;;;;;;;;;5063099;28;20251;-66
2022/08/17 10:08:08;;;;;;;3.63;3.33;;;;;;;;;;5047240;28;20776;-66
2022/08/17 10:10:42;;;;;;;3.92;3.22;;;;;;;;;;5052381;28;20228;-65
2022/08/17 10:13:45;;;;;;;4.40;3.55;;;;;;;;;;5068228;28;20209;-66
2022/08/17 10:16:22;;;;;;;5.68;3.80;;;;;;;;;;5055434;28;20280;-66
2022/08/17 10:18:53;;;;;;;3.78;3.08;;;;;;;;;;5049041;28;20291;-66
2022/08/17 10:27:02;;;;;;;3.22;3.03;;;;;;;;;;5055800;28;20247;-66
2022/08/17 10:29:32;;;;;;;4.20;3.22;;;;;;;;;;5063152;28;20312;-66
2022/08/17 10:32:19;;;;;;;4.63;3.30;;;;;;;;;;5056920;28;20237;-66
2022/08/17 10:34:49;;;;;;;4.53;3.22;;;;;;;;;;5052041;28;20564;-67
2022/08/17 10:37:27;;;;;;;2.92;2.72;;;;;;;;;;5073451;28;20201;-66
2022/08/17 10:40:14;;;;;;;4.03;2.78;;;;;;;;;;5070246;28;20221;-66
2022/08/17 10:42:45;;;;;;;10.55;3.58;;;;;;;;;;5065138;28;20691;-66
2022/08/17 10:45:25;;;;;;;12.38;3.25;;;;;;;;;;5058474;28;20248;-65
2022/08/17 10:48:02;;;;;;;7.78;2.80;;;;;;;;;;5059191;28;20565;-66
2022/08/17 10:50:46;;;;;;;4.53;3.20;;;;;;;;;;5058343;28;20737;-67
2022/08/17 10:53:37;;;;;;;4.32;2.92;;;;;;;;;;5063773;28;20202;-66
2022/08/17 10:56:12;;;;;;;3.28;2.78;;;;;;;;;;5063912;28;20224;-66
2022/08/17 10:58:49;;;;;;;3.22;2.85;;;;;;;;;;5059979;28;20210;-66
2022/08/17 11:01:17;;;;;;;3.42;3.10;;;;;;;;;;5071460;28;20217;-65
2022/08/17 11:03:53;;;;;;;3.83;3.30;;;;;;;;;;5052551;28;20261;-66
2022/08/17 11:06:24;;;;;;;2.97;2.78;;;;;;;;;;5046841;28;20217;-67
2022/08/17 11:09:11;;;;;;;3.42;3.00;;;;;;;;;;5052165;28;20286;-67
2022/08/17 11:11:49;;;;;;;4.22;3.30;;;;;;;;;;5038732;28;20805;-66
2022/08/17 11:14:36;;;;;;;3.00;2.75;;;;;;;;;;5077102;28;20206;-66
2022/08/17 11:17:24;;;;;;;3.28;2.75;;;;;;;;;;5050006;28;20197;-67
2022/08/17 11:20:03;;;;;;;3.90;3.42;;;;;;;;;;5071879;28;20234;-67
2022/08/17 11:22:36;;;;;;;3.42;3.13;;;;;;;;;;5070741;28;20205;-67
2022/08/17 11:25:18;;;;;;;4.15;3.20;;;;;;;;;;5047536;28;20679;-67
2022/08/17 11:27:52;;;;;;;3.00;2.75;;;;;;;;;;5065748;28;20221;-66
2022/08/17 11:30:38;;;;;;;3.38;3.08;;;;;;;;;;5062794;28;20228;-67
2022/08/17 11:33:24;;;;;;;4.20;3.20;;;;;;;;;;5048917;28;20210;-67
2022/08/17 11:35:53;;;;;;;3.20;2.90;;;;;;;;;;5070305;28;20196;-67
2022/08/17 11:38:25;;;;;;;4.05;3.28;;;;;;;;;;5062745;28;20204;-67
2022/08/17 11:41:09;;;;;;;3.45;3.00;;;;;;;;;;5054260;28;20702;-67
2022/08/17 11:43:55;;;;;;;3.03;2.70;;;;;;;;;;5060926;28;20202;-66
2022/08/17 11:51:32;;;;;;;3.50;3.20;;;;;;;;;;5039368;28;20217;-67
2022/08/17 11:52:43;;;;;;;4.88;3.00;;;;;;;;;;5064479;28;20244;-67
2022/08/17 11:55:42;;;;;;;3.35;3.00;;;;;;;;;;5066940;28;20606;-67
2022/08/17 11:58:29;;;;;;;3.47;3.10;;;;;;;;;;4974486;28;20248;-66
2022/08/17 12:00:58;;;;;;;5.00;2.70;;;;;;;;;;5058377;28;20722;-66
2022/08/17 12:03:32;;;;;;;6.60;3.13;;;;;;;;;;5051633;28;20224;-66
2022/08/17 12:06:22;;;;;;;4.03;2.92;;;;;;;;;;5059572;28;20311;-66
2022/08/17 12:09:00;;;;;;;3.40;3.10;;;;;;;;;;5064749;28;20228;-66
2022/08/17 12:11:41;;;;;;;5.25;2.83;;;;;;;;;;5071303;28;20208;-66
2022/08/17 12:14:31;;;;;;;3.50;2.88;;;;;;;;;;5047093;28;20283;-66
2022/08/17 12:17:22;;;;;;;3.65;3.35;;;;;;;;;;5066068;28;20825;-67
2022/08/17 12:20:13;;;;;;;3.58;3.10;;;;;;;;;;5051641;28;20708;-66
2022/08/17 12:22:47;;;;;;;4.30;3.35;;;;;;;;;;5046781;28;20298;-66
2022/08/17 12:25:18;;;;;;;4.28;3.28;;;;;;;;;;5058040;28;20206;-66
2022/08/17 12:27:47;;;;;;;3.47;3.15;;;;;;;;;;5057681;28;20200;-65
2022/08/17 12:30:34;;;;;;;4.15;3.15;;;;;;;;;;5047184;28;20237;-65
2022/08/17 12:33:02;;;;;;;3.28;2.90;;;;;;;;;;5081714;28;20198;-66
2022/08/17 12:35:33;;;;;;;3.47;2.75;;;;;;;;;;5050162;28;20680;-67
2022/08/17 12:38:02;;;;;;;3.90;3.30;;;;;;;;;;5049353;28;20510;-66
2022/08/17 12:40:31;;;;;;;3.30;3.08;;;;;;;;;;5044760;28;20256;-67
2022/08/17 12:43:17;;;;;;;3.47;3.20;;;;;;;;;;5056562;28;20201;-67
2022/08/17 12:45:55;;;;;;;3.15;2.95;;;;;;;;;;5047161;28;20240;-65
2022/08/17 12:48:24;;;;;;;3.50;3.17;;;;;;;;;;5043037;28;20209;-66
2022/08/17 12:50:58;;;;;;;4.20;2.85;;;;;;;;;;5046828;28;20226;-67
2022/08/17 12:53:28;;;;;;;3.05;2.85;;;;;;;;;;5057995;28;20198;-66
2022/08/17 12:55:57;;;;;;;3.55;3.25;;;;;;;;;;5068051;28;21861;-67
2022/08/17 12:58:26;;;;;;;3.58;3.28;;;;;;;;;;5042137;28;20224;-66
2022/08/17 13:01:03;;;;;;;3.55;3.22;;;;;;;;;;5046306;28;20275;-66
2022/08/17 13:03:42;;;;;;;3.45;3.25;;;;;;;;;;5064635;28;20201;-67
2022/08/17 13:06:13;;;;;;;3.30;3.10;;;;;;;;;;5055541;28;20205;-67
2022/08/17 13:08:41;;;;;;;3.20;3.00;;;;;;;;;;5055249;28;20619;-66
2022/08/17 13:11:17;;;;;;;3.40;3.10;;;;;;;;;;5044703;28;20292;-67
2022/08/17 13:13:52;;;;;;;4.30;2.90;;;;;;;;;;5060770;28;20202;-67
2022/08/17 13:16:22;;;;;;;3.55;3.25;;;;;;;;;;5039920;28;20201;-67
2022/08/17 13:18:49;;;;;;;3.13;2.92;;;;;;;;;;5061792;28;20201;-67
2022/08/17 13:21:25;;;;;;;2.83;2.53;;;;;;;;;;5043037;28;20661;-67
2022/08/17 13:23:58;;;;;;;3.25;2.95;;;;;;;;;;5063268;28;20708;-67
2022/08/17 13:26:36;;;;;;;3.38;2.80;;;;;;;;;;5066491;28;20206;-65
2022/08/17 13:29:24;;;;;;;2.90;2.67;;;;;;;;;;5041420;28;20722;-67
2022/08/17 13:31:57;;;;;;;2.88;2.67;;;;;;;;;;5062371;28;20197;-67
2022/08/17 13:34:34;;;;;;;3.20;2.90;;;;;;;;;;5060903;28;20691;-67
2022/08/17 13:37:25;;;;;;;3.17;2.88;;;;;;;;;;5062922;28;20197;-67
2022/08/17 13:39:54;;;;;;;3.67;3.15;;;;;;;;;;5070056;28;20224;-67
2022/08/17 13:42:40;;;;;;;3.38;2.88;;;;;;;;;;5055094;28;20217;-67
2022/08/17 13:45:29;;;;;;;3.22;3.03;;;;;;;;;;5048907;28;20575;-67
2022/08/17 13:48:05;;;;;;;3.97;3.30;;;;;;;;;;5055884;28;20782;-67
2022/08/17 13:50:33;;;;;;;3.72;2.78;;;;;;;;;;5041101;28;20309;-67
2022/08/17 13:53:00;;;;;;;2.97;2.78;;;;;;;;;;5068541;28;20216;-66
2022/08/17 13:55:29;;;;;;;3.20;3.00;;;;;;;;;;5065505;28;20704;-67
2022/08/17 13:57:57;;;;;;;3.65;3.10;;;;;;;;;;5053183;28;20203;-67
2022/08/17 14:00:35;;;;;;;3.15;2.92;;;;;;;;;;5041655;28;20320;-67
2022/08/17 14:03:04;;;;;;;3.28;2.95;;;;;;;;;;5046821;28;20210;-67
2022/08/17 14:05:32;;;;;;;5.03;3.00;;;;;;;;;;5063861;28;20224;-67
2022/08/17 14:08:04;;;;;;;4.07;3.00;;;;;;;;;;5044176;28;20212;-67
2022/08/17 14:10:35;;;;;;;5.07;2.72;;;;;;;;;;5047473;28;20226;-68
2022/08/17 14:13:03;;;;;;;3.00;2.80;;;;;;;;;;5064682;28;20212;-67
2022/08/17 14:15:31;;;;;;;4.05;3.20;;;;;;;;;;5059876;28;20193;-67
2022/08/17 14:18:18;;;;;;;3.30;3.00;;;;;;;;;;5055699;28;20295;-67
2022/08/17 14:21:07;;;;;;;3.63;2.97;;;;;;;;;;5056133;28;20237;-68
2022/08/17 14:23:35;;;;;;;3.42;3.10;;;;;;;;;;5071058;28;20284;-65
2022/08/17 14:26:03;;;;;;;3.35;3.05;;;;;;;;;;5064334;28;20213;-66
2022/08/17 14:28:30;;;;;;;3.00;2.80;;;;;;;;;;5065957;28;20213;-65
2022/08/17 14:30:58;;;;;;;3.58;3.28;;;;;;;;;;5062444;28;20584;-66
2022/08/17 14:33:25;;;;;;;4.97;2.90;;;;;;;;;;5070065;28;20264;-66
2022/08/17 14:35:53;;;;;;;3.00;2.80;;;;;;;;;;5054849;28;20308;-66
2022/08/17 14:38:21;;;;;;;4.13;3.15;;;;;;;;;;5057533;28;20205;-66
2022/08/17 14:40:48;;;;;;;3.13;2.83;;;;;;;;;;5049986;28;20293;-67
2022/08/17 14:43:16;;;;;;;4.65;3.25;;;;;;;;;;5063323;28;20263;-67
2022/08/17 14:45:44;;;;;;;3.30;3.00;;;;;;;;;;5057936;28;20210;-67
2022/08/17 14:48:11;;;;;;;3.35;3.05;;;;;;;;;;5063272;28;20209;-66
2022/08/17 14:50:40;;;;;;;3.05;2.85;;;;;;;;;;5067320;28;20229;-66
2022/08/17 14:53:09;;;;;;;3.47;3.17;;;;;;;;;;5055565;28;20205;-68
2022/08/17 14:55:39;;;;;;;3.15;2.95;;;;;;;;;;5054261;28;20209;-66
2022/08/17 14:58:07;;;;;;;4.85;3.50;;;;;;;;;;5058931;28;20651;-66
2022/08/17 15:00:35;;;;;;;3.08;2.80;;;;;;;;;;5041466;28;20303;-67
2022/08/17 15:03:03;;;;;;;4.40;2.97;;;;;;;;;;5065733;28;20699;-66
2022/08/17 15:05:35;;;;;;;3.58;3.28;;;;;;;;;;5047486;28;20234;-66
2022/08/17 15:08:04;;;;;;;5.85;3.15;;;;;;;;;;5047229;28;20297;-66
2022/08/17 15:10:32;;;;;;;3.33;3.10;;;;;;;;;;5070261;28;20231;-67
2022/08/17 15:12:59;;;;;;;4.15;3.20;;;;;;;;;;5046026;28;20205;-66
2022/08/17 15:15:27;;;;;;;4.88;3.25;;;;;;;;;;5045671;28;20213;-67
2022/08/17 15:17:54;;;;;;;6.97;3.45;;;;;;;;;;5057990;28;20203;-67
2022/08/17 15:20:26;;;;;;;6.28;3.17;;;;;;;;;;5034485;28;20234;-67
2022/08/17 15:22:56;;;;;;;6.45;3.50;;;;;;;;;;5038695;28;20866;-67
2022/08/17 15:25:24;;;;;;;3.40;3.10;;;;;;;;;;5056685;28;20584;-68
2022/08/17 15:27:54;;;;;;;4.38;3.25;;;;;;;;;;5059966;28;20232;-67
2022/08/17 15:30:22;;;;;;;3.30;3.00;;;;;;;;;;5059628;28;20220;-67
2022/08/17 15:32:50;;;;;;;3.70;3.40;;;;;;;;;;5044242;28;20209;-67
2022/08/17 15:35:22;;;;;;;3.40;3.10;;;;;;;;;;5051621;28;20193;-67
2022/08/17 15:38:06;;;;;;;4.40;3.33;;;;;;;;;;5050834;28;20190;-67
2022/08/17 15:40:46;;;;;;;3.97;3.20;;;;;;;;;;5046827;28;20222;-66
2022/08/17 15:43:18;;;;;;;3.38;3.00;;;;;;;;;;5041028;28;22135;-66
2022/08/17 15:46:09;;;;;;;3.47;3.22;;;;;;;;;;5045265;28;20213;-67
2022/08/17 15:48:40;;;;;;;4.13;3.17;;;;;;;;;;5049433;28;20202;-67
2022/08/17 15:51:15;;;;;;;5.05;3.05;;;;;;;;;;5033735;28;20263;-67